Terminal Aerodrome Forecast
Issued by NWS

Home | Current Version | Previous Version | Text Only | Print | Product List | Glossary On
Versions: 1 2 3 4 5 6 7 8 9 10 11 12 13 14 15 16 17 18
295
FTUS46 KSGX 251129
TAFCRQ
TAF
KCRQ 251129Z 2512/2612 16005KT P6SM BKN025
      TEMPO 2512/2516 SCT025
     FM251600 21006KT P6SM SCT030 SCT250
     FM251900 24011KT P6SM SCT025 SCT250
     FM260200 VRB05KT P6SM SCT015 SCT250
      TEMPO 2604/2608 BKN015
     FM260800 15005KT P6SM OVC015=

USA.gov is the U.S. government's official web portal to all federal, state and local government web resources and services.